createdAt,value
2018-07-23T00:02:26.834Z,101719.74
2018-07-23T00:04:55.601Z,101722.14
2018-07-23T00:07:24.447Z,101721.87
2018-07-23T00:09:53.595Z,101716.21
2018-07-23T00:12:22.664Z,101715.66
2018-07-23T00:14:51.475Z,101719.95
2018-07-23T00:17:20.636Z,101716.96
2018-07-23T00:19:49.419Z,101715.28
2018-07-23T00:22:18.367Z,101717.12
2018-07-23T00:24:47.223Z,101716.07
2018-07-23T00:27:15.882Z,101719.62
2018-07-23T00:29:44.715Z,101720.75
2018-07-23T00:32:13.522Z,101717.08
2018-07-23T00:34:42.569Z,101714.31
2018-07-23T00:37:11.476Z,101713.77
2018-07-23T00:39:40.399Z,101715.89
2018-07-23T00:42:09.171Z,101712.02
2018-07-23T00:44:37.979Z,101715.55
2018-07-23T00:47:06.854Z,101708.39
2018-07-23T00:49:35.968Z,101713.90
2018-07-23T00:52:04.829Z,101718.91
2018-07-23T00:54:33.699Z,101712.02
2018-07-23T00:57:02.808Z,101710.02
2018-07-23T00:59:31.700Z,101716.19
2018-07-23T01:02:00.468Z,101720.67
2018-07-23T01:04:29.254Z,101723.94
2018-07-23T01:06:58.017Z,101718.25
2018-07-23T01:09:26.864Z,101721.77
2018-07-23T01:11:55.747Z,101716.53
2018-07-23T01:14:24.549Z,101718.58
2018-07-23T01:16:53.201Z,101715.56
2018-07-23T01:19:22.163Z,101716.95
2018-07-23T01:21:50.951Z,101719.43
2018-07-23T01:24:19.843Z,101721.33
2018-07-23T01:26:48.655Z,101725.02
2018-07-23T01:29:17.420Z,101716.92
2018-07-23T01:31:46.230Z,101719.09
2018-07-23T01:34:15.044Z,101723.76
2018-07-23T01:36:43.915Z,101722.19
2018-07-23T01:39:12.681Z,101720.43
2018-07-23T01:41:41.485Z,101716.73
2018-07-23T01:44:10.282Z,101723.66
2018-07-23T01:46:39.112Z,101713.77
2018-07-23T01:49:08.035Z,101718.13
2018-07-23T01:51:36.875Z,101713.23
2018-07-23T01:54:05.678Z,101718.86
2018-07-23T01:56:34.477Z,101716.16
2018-07-23T01:59:03.284Z,101721.19
2018-07-23T02:01:32.184Z,101722.77
2018-07-23T02:04:00.978Z,101729.59
2018-07-23T02:06:29.879Z,101730.97
2018-07-23T02:08:58.696Z,101732.47
2018-07-23T02:11:33.463Z,101724.78
2018-07-23T02:14:02.303Z,101727.91
2018-07-23T02:16:31.156Z,101728.64
2018-07-23T02:18:59.766Z,101730.12
2018-07-23T02:21:28.576Z,101741.04
2018-07-23T02:23:57.463Z,101737.28
2018-07-23T02:26:26.443Z,101742.09
2018-07-23T02:28:55.262Z,101747.97
2018-07-23T02:31:24.089Z,101746.12
2018-07-23T02:33:52.924Z,101746.11
2018-07-23T02:36:21.727Z,101749.02
2018-07-23T02:38:50.639Z,101743.56
2018-07-23T02:41:19.469Z,101747.45
2018-07-23T02:43:48.111Z,101740.52
2018-07-23T02:46:17.277Z,101749.77
2018-07-23T02:48:46.108Z,101748.07
2018-07-23T02:51:14.954Z,101749.98
2018-07-23T02:53:43.752Z,101751.68
2018-07-23T02:56:12.524Z,101748.66
2018-07-23T02:58:41.377Z,101759.84
2018-07-23T03:01:10.194Z,101759.25
2018-07-23T03:03:39.104Z,101756.87
2018-07-23T03:06:07.914Z,101763.03
2018-07-23T03:08:36.752Z,101767.20
2018-07-23T03:11:05.423Z,101771.34
2018-07-23T03:13:34.283Z,101767.59
2018-07-23T03:16:02.978Z,101770.13
2018-07-23T03:18:31.875Z,101776.34
2018-07-23T03:21:00.667Z,101773.77
2018-07-23T03:23:29.700Z,101771.34
2018-07-23T03:25:58.408Z,101777.31
2018-07-23T03:28:27.244Z,101779.73
2018-07-23T03:30:56.371Z,101781.28
2018-07-23T03:33:25.253Z,101786.69
2018-07-23T03:35:54.111Z,101795.14
2018-07-23T03:38:22.932Z,101791.77
2018-07-23T03:40:51.829Z,101793.02
2018-07-23T03:43:20.617Z,101786.58
2018-07-23T03:45:55.627Z,101789.55
2018-07-23T03:48:24.487Z,101789.85
2018-07-23T03:50:53.399Z,101786.08
2018-07-23T03:53:22.236Z,101785.76
2018-07-23T03:55:51.129Z,101785.20
2018-07-23T03:58:19.918Z,101782.33
2018-07-23T04:00:48.839Z,101792.67
2018-07-23T04:03:17.708Z,101793.95
2018-07-23T04:05:46.370Z,101797.66
2018-07-23T04:08:15.163Z,101800.81
2018-07-23T04:10:43.998Z,101797.05
2018-07-23T04:13:12.832Z,101800.40
2018-07-23T04:15:41.744Z,101802.70
2018-07-23T04:18:10.596Z,101799.00
2018-07-23T04:20:39.429Z,101806.13
2018-07-23T04:23:08.305Z,101805.55
2018-07-23T04:25:37.164Z,101807.93
2018-07-23T04:28:06.188Z,101799.09
2018-07-23T04:30:35.017Z,101803.45
2018-07-23T04:33:04.019Z,101807.41
2018-07-23T04:35:32.907Z,101813.92
2018-07-23T04:38:01.608Z,101815.07
2018-07-23T04:40:30.547Z,101818.62
2018-07-23T04:42:59.394Z,101818.19
2018-07-23T04:45:34.311Z,101819.53
2018-07-23T04:48:03.010Z,101823.85
2018-07-23T04:50:31.908Z,101822.27
2018-07-23T04:53:00.764Z,101825.94
2018-07-23T04:55:29.555Z,101829.14
2018-07-23T04:57:58.483Z,101830.53
2018-07-23T05:00:27.265Z,101832.28
2018-07-23T05:02:56.148Z,101827.42
2018-07-23T05:05:24.827Z,101827.00
2018-07-23T05:07:53.497Z,101831.31
2018-07-23T05:10:22.317Z,101827.52
2018-07-23T05:12:50.990Z,101833.55
2018-07-23T05:15:19.855Z,101825.47
2018-07-23T05:17:48.687Z,101827.53
2018-07-23T05:20:17.520Z,101833.13
2018-07-23T05:22:46.281Z,101829.94
2018-07-23T05:25:15.136Z,101845.09
2018-07-23T05:27:44.002Z,101837.41
2018-07-23T05:30:12.872Z,101843.16
2018-07-23T05:32:41.652Z,101843.02
2018-07-23T05:35:10.840Z,101842.31
2018-07-23T05:37:39.748Z,101840.54
2018-07-23T05:40:08.652Z,101847.01
2018-07-23T05:42:37.462Z,101837.98
2018-07-23T05:45:06.469Z,101847.73
2018-07-23T05:47:35.236Z,101849.48
2018-07-23T05:50:04.866Z,101852.55
2018-07-23T05:52:33.687Z,101851.23
2018-07-23T05:55:02.542Z,101852.42
2018-07-23T05:57:31.343Z,101842.45
2018-07-23T06:00:00.161Z,101846.14
2018-07-23T06:02:28.947Z,101841.92
2018-07-23T06:04:58.237Z,101845.67
2018-07-23T06:07:27.005Z,101844.04
2018-07-23T06:09:55.884Z,101843.78
2018-07-23T06:12:24.666Z,101840.69
2018-07-23T06:14:53.571Z,101843.09
2018-07-23T06:17:22.464Z,101841.83
2018-07-23T06:19:51.252Z,101838.98
2018-07-23T06:22:20.089Z,101840.25
2018-07-23T06:24:48.943Z,101845.86
2018-07-23T06:27:17.841Z,101851.77
2018-07-23T06:29:46.955Z,101844.77
2018-07-23T06:32:15.663Z,101849.50
2018-07-23T06:34:44.389Z,101843.92
2018-07-23T06:37:13.447Z,101848.29
2018-07-23T06:39:42.238Z,101842.52
2018-07-23T06:42:11.166Z,101848.13
2018-07-23T06:44:39.956Z,101849.12
2018-07-23T06:47:08.835Z,101853.72
2018-07-23T06:49:37.636Z,101848.89
2018-07-23T06:52:06.704Z,101857.27
2018-07-23T06:54:35.622Z,101854.17
2018-07-23T06:57:04.863Z,101849.29
2018-07-23T06:59:33.869Z,101860.29
2018-07-23T07:02:02.752Z,101860.87
2018-07-23T07:04:31.476Z,101862.93
2018-07-23T07:07:00.394Z,101861.63
2018-07-23T07:09:29.196Z,101858.42
2018-07-23T07:11:58.031Z,101852.95
2018-07-23T07:14:26.865Z,101860.72
2018-07-23T07:16:55.739Z,101855.39
2018-07-23T07:19:24.615Z,101858.46
2018-07-23T07:21:53.417Z,101855.08
2018-07-23T07:24:22.727Z,101854.23
2018-07-23T07:26:51.587Z,101847.81
2018-07-23T07:29:20.501Z,101858.33
2018-07-23T07:31:49.209Z,101861.39
2018-07-23T07:34:18.055Z,101852.88
2018-07-23T07:36:46.877Z,101858.91
2018-07-23T07:39:15.770Z,101855.16
2018-07-23T07:41:44.554Z,101852.21
2018-07-23T07:44:13.539Z,101861.73
2018-07-23T07:46:42.350Z,101856.75
2018-07-23T07:49:11.183Z,101849.25
2018-07-23T07:51:39.859Z,101849.60
2018-07-23T07:54:08.814Z,101847.08
2018-07-23T07:56:37.683Z,101846.97
2018-07-23T07:59:06.640Z,101844.57
2018-07-23T08:01:35.543Z,101848.98
2018-07-23T08:04:04.475Z,101847.10
2018-07-23T08:06:33.243Z,101844.09
2018-07-23T08:09:02.188Z,101838.06
2018-07-23T08:11:30.950Z,101836.28
2018-07-23T08:13:59.784Z,101843.48
2018-07-23T08:16:28.635Z,101840.19
2018-07-23T08:18:57.430Z,101844.33
2018-07-23T08:21:26.186Z,101845.09
2018-07-23T08:23:55.032Z,101832.34
2018-07-23T08:26:23.879Z,101837.13
2018-07-23T08:28:52.720Z,101827.55
2018-07-23T08:31:21.846Z,101825.31
2018-07-23T08:33:50.760Z,101829.50
2018-07-23T08:36:19.907Z,101838.33
2018-07-23T08:38:48.697Z,101839.12
2018-07-23T08:41:17.530Z,101842.08
2018-07-23T08:43:46.347Z,101841.95
2018-07-23T08:46:15.268Z,101853.87
2018-07-23T08:48:44.057Z,101849.30
2018-07-23T08:51:12.973Z,101853.18
2018-07-23T08:53:41.625Z,101854.81
2018-07-23T08:56:10.540Z,101848.13
2018-07-23T08:58:39.387Z,101852.09
2018-07-23T09:01:08.320Z,101844.14
2018-07-23T09:03:37.151Z,101846.39
2018-07-23T09:06:06.061Z,101848.03
2018-07-23T09:08:35.109Z,101845.41
2018-07-23T09:11:04.083Z,101843.59
2018-07-23T09:13:32.979Z,101848.61
2018-07-23T09:16:01.926Z,101851.61
2018-07-23T09:18:30.889Z,101853.21
2018-07-23T09:20:59.554Z,101855.06
2018-07-23T09:23:28.647Z,101860.86
2018-07-23T09:25:57.474Z,101854.98
2018-07-23T09:28:26.343Z,101857.13
2018-07-23T09:30:55.679Z,101852.63
2018-07-23T09:33:25.298Z,101844.80
2018-07-23T09:35:54.264Z,101846.22
2018-07-23T09:38:23.427Z,101852.22
2018-07-23T09:40:52.552Z,101847.17
2018-07-23T09:43:21.386Z,101848.58
2018-07-23T09:45:54.059Z,101850.55
2018-07-23T09:48:22.805Z,101842.75
2018-07-23T09:50:51.650Z,101848.13
2018-07-23T09:53:20.498Z,101842.75
2018-07-23T09:55:49.127Z,101835.77
2018-07-23T09:58:18.233Z,101835.80
2018-07-23T10:00:52.595Z,101833.98
2018-07-23T10:03:21.671Z,101839.25
2018-07-23T10:05:50.455Z,101827.36
2018-07-23T10:08:19.287Z,101833.12
2018-07-23T10:10:48.139Z,101832.63
2018-07-23T10:13:17.263Z,101833.78
2018-07-23T10:15:46.076Z,101830.75
2018-07-23T10:18:15.247Z,101831.53
2018-07-23T10:20:44.031Z,101828.88
2018-07-23T10:23:13.167Z,101828.27
2018-07-23T10:25:42.067Z,101821.58
2018-07-23T10:28:10.891Z,101824.34
2018-07-23T10:30:39.754Z,101829.23
2018-07-23T10:33:08.644Z,101822.49
2018-07-23T10:35:37.358Z,101822.39
2018-07-23T10:38:06.179Z,101820.34
2018-07-23T10:40:35.032Z,101821.91
2018-07-23T10:43:03.850Z,101820.86
2018-07-23T10:45:38.630Z,101823.45
2018-07-23T10:48:07.500Z,101818.87
2018-07-23T10:50:36.372Z,101816.42
2018-07-23T10:53:05.195Z,101814.61
2018-07-23T10:55:34.076Z,101813.89
2018-07-23T10:58:02.920Z,101813.52
2018-07-23T11:00:31.891Z,101816.19
2018-07-23T11:03:00.747Z,101805.16
2018-07-23T11:05:29.435Z,101810.00
2018-07-23T11:07:58.568Z,101808.61
2018-07-23T11:10:27.443Z,101805.88
2018-07-23T11:12:56.283Z,101801.78
2018-07-23T11:15:25.106Z,101798.73
2018-07-23T11:17:53.859Z,101799.43
2018-07-23T11:20:22.704Z,101800.53
2018-07-23T11:22:51.516Z,101800.47
2018-07-23T11:25:39.084Z,101804.10
2018-07-23T11:27:49.624Z,101803.56
2018-07-23T11:30:18.376Z,101806.48
2018-07-23T11:32:47.187Z,101803.83
2018-07-23T11:35:15.987Z,101799.00
2018-07-23T11:37:44.887Z,101800.00
2018-07-23T11:40:13.948Z,101806.78
2018-07-23T11:42:42.777Z,101807.34
2018-07-23T11:45:11.589Z,101809.28
2018-07-23T11:47:40.432Z,101808.67
2018-07-23T11:50:09.193Z,101797.95
2018-07-23T11:52:38.197Z,101801.59
2018-07-23T11:55:06.959Z,101803.42
2018-07-23T11:57:35.616Z,101800.20
2018-07-23T12:00:05.016Z,101798.52
2018-07-23T12:02:33.935Z,101798.48
2018-07-23T12:05:02.778Z,101806.45
2018-07-23T12:07:31.617Z,101802.09
2018-07-23T12:10:00.363Z,101801.38
2018-07-23T12:12:29.222Z,101797.84
2018-07-23T12:14:58.090Z,101802.33
2018-07-23T12:17:26.866Z,101806.30
2018-07-23T12:19:55.708Z,101801.96
2018-07-23T12:22:24.457Z,101800.43
2018-07-23T12:24:53.307Z,101803.89
2018-07-23T12:27:22.172Z,101802.45
2018-07-23T12:29:50.987Z,101799.69
2018-07-23T12:32:19.877Z,101793.61
2018-07-23T12:34:48.701Z,101803.19
2018-07-23T12:37:17.493Z,101803.93
2018-07-23T12:39:46.429Z,101795.41
2018-07-23T12:42:15.160Z,101789.31
2018-07-23T12:44:43.964Z,101792.78
2018-07-23T12:47:12.833Z,101791.02
2018-07-23T12:49:41.604Z,101790.86
2018-07-23T12:52:10.331Z,101786.16
2018-07-23T12:54:39.169Z,101787.97
2018-07-23T12:57:08.006Z,101781.93
2018-07-23T12:59:36.824Z,101777.19
2018-07-23T13:02:05.508Z,101777.21
2018-07-23T13:04:34.386Z,101775.95
2018-07-23T13:07:03.198Z,101778.34
2018-07-23T13:09:31.856Z,101778.27
2018-07-23T13:12:00.750Z,101782.04
2018-07-23T13:14:29.643Z,101781.91
2018-07-23T13:16:58.524Z,101783.56
2018-07-23T13:19:27.562Z,101776.11
2018-07-23T13:21:56.406Z,101773.44
2018-07-23T13:24:25.258Z,101776.77
2018-07-23T13:26:54.179Z,101777.13
2018-07-23T13:29:23.446Z,101776.47
2018-07-23T13:31:52.336Z,101779.98
2018-07-23T13:34:21.211Z,101772.33
2018-07-23T13:36:49.916Z,101772.38
2018-07-23T13:39:18.740Z,101779.19
2018-07-23T13:41:47.639Z,101778.48
2018-07-23T13:44:16.436Z,101765.98
2018-07-23T13:46:45.299Z,101776.50
2018-07-23T13:49:14.314Z,101769.12
2018-07-23T13:51:43.217Z,101771.49
2018-07-23T13:54:12.148Z,101771.86
2018-07-23T13:56:40.817Z,101762.84
2018-07-23T13:59:09.639Z,101763.42
2018-07-23T14:01:38.462Z,101765.90
2018-07-23T14:04:07.260Z,101766.53
2018-07-23T14:06:36.205Z,101763.71
2018-07-23T14:09:09.153Z,101773.27
2018-07-23T14:11:38.099Z,101759.67
2018-07-23T14:14:07.015Z,101757.58
2018-07-23T14:16:35.894Z,101759.08
2018-07-23T14:19:04.729Z,101754.88
2018-07-23T14:21:33.560Z,101747.89
2018-07-23T14:24:02.625Z,101749.95
2018-07-23T14:26:31.234Z,101745.29
2018-07-23T14:28:59.853Z,101750.98
2018-07-23T14:31:28.739Z,101753.88
2018-07-23T14:33:57.580Z,101745.50
2018-07-23T14:36:26.546Z,101740.13
2018-07-23T14:38:55.388Z,101738.63
2018-07-23T14:41:24.163Z,101733.81
2018-07-23T14:43:53.091Z,101729.30
2018-07-23T14:46:21.896Z,101732.50
2018-07-23T14:48:50.699Z,101727.52
2018-07-23T14:51:19.452Z,101726.75
2018-07-23T14:53:48.299Z,101721.67
2018-07-23T14:56:17.183Z,101722.20
2018-07-23T14:58:46.253Z,101722.69
2018-07-23T15:01:15.030Z,101725.94
2018-07-23T15:03:43.861Z,101717.39
2018-07-23T15:06:13.060Z,101719.70
2018-07-23T15:08:41.953Z,101718.92
2018-07-23T15:11:10.683Z,101714.23
2018-07-23T15:13:39.731Z,101715.31
2018-07-23T15:16:08.631Z,101717.85
2018-07-23T15:18:37.367Z,101714.41
2018-07-23T15:21:06.308Z,101717.81
2018-07-23T15:23:35.108Z,101720.17
2018-07-23T15:26:04.052Z,101720.95
2018-07-23T15:28:32.829Z,101716.30
2018-07-23T15:31:01.627Z,101715.64
2018-07-23T15:33:30.471Z,101718.30
2018-07-23T15:35:59.319Z,101724.56
2018-07-23T15:38:28.103Z,101717.22
2018-07-23T15:40:56.932Z,101710.32
2018-07-23T15:43:25.975Z,101715.80
2018-07-23T15:45:59.799Z,101712.81
2018-07-23T15:48:28.509Z,101720.19
2018-07-23T15:50:57.342Z,101718.13
2018-07-23T15:53:25.977Z,101712.15
2018-07-23T15:55:54.881Z,101719.39
2018-07-23T15:58:23.759Z,101720.80
2018-07-23T16:00:52.616Z,101719.40
2018-07-23T16:03:21.436Z,101719.72
2018-07-23T16:05:50.294Z,101709.69
2018-07-23T16:08:19.058Z,101707.67
2018-07-23T16:10:47.919Z,101713.77
2018-07-23T16:13:16.743Z,101716.13
2018-07-23T16:15:45.495Z,101704.85
2018-07-23T16:18:14.331Z,101709.08
2018-07-23T16:20:43.246Z,101708.75
2018-07-23T16:23:12.118Z,101707.87
2018-07-23T16:25:40.798Z,101707.45
2018-07-23T16:28:10.907Z,101707.75
2018-07-23T16:30:39.770Z,101701.63
2018-07-23T16:33:08.613Z,101708.45
2018-07-23T16:35:37.487Z,101702.51
2018-07-23T16:38:06.433Z,101696.09
2018-07-23T16:40:35.242Z,101698.81
2018-07-23T16:43:04.161Z,101697.30
2018-07-23T16:45:33.023Z,101692.09
2018-07-23T16:48:02.004Z,101694.16
2018-07-23T16:50:30.788Z,101689.97
2018-07-23T16:52:59.621Z,101693.05
2018-07-23T16:55:28.703Z,101697.94
2018-07-23T16:57:57.503Z,101694.10
2018-07-23T17:00:26.514Z,101693.78
2018-07-23T17:02:55.227Z,101701.39
2018-07-23T17:05:24.072Z,101694.80
2018-07-23T17:07:52.939Z,101695.41
2018-07-23T17:10:21.779Z,101693.77
2018-07-23T17:12:50.607Z,101693.34
2018-07-23T17:15:19.523Z,101686.52
2018-07-23T17:17:48.388Z,101690.16
2018-07-23T17:20:17.183Z,101689.42
2018-07-23T17:22:45.959Z,101692.78
2018-07-23T17:25:14.939Z,101696.42
2018-07-23T17:27:43.816Z,101697.61
2018-07-23T17:30:12.671Z,101699.48
2018-07-23T17:32:41.471Z,101696.02
2018-07-23T17:35:10.304Z,101701.03
2018-07-23T17:37:39.202Z,101702.05
2018-07-23T17:40:08.167Z,101700.69
2018-07-23T17:42:36.983Z,101700.92
2018-07-23T17:45:05.853Z,101700.57
2018-07-23T17:47:34.615Z,101701.11
2018-07-23T17:50:03.700Z,101698.05
2018-07-23T17:52:32.476Z,101702.26
2018-07-23T17:55:01.364Z,101700.03
2018-07-23T17:57:29.975Z,101703.77
2018-07-23T17:59:58.789Z,101702.11
2018-07-23T18:02:27.664Z,101704.25
2018-07-23T18:04:56.525Z,101709.31
2018-07-23T18:07:25.327Z,101708.05
2018-07-23T18:09:54.158Z,101706.27
2018-07-23T18:12:22.960Z,101710.80
2018-07-23T18:14:51.848Z,101710.86
2018-07-23T18:17:21.537Z,101711.34
2018-07-23T18:19:50.383Z,101715.73
2018-07-23T18:22:20.107Z,101715.03
2018-07-23T18:24:48.961Z,101714.88
2018-07-23T18:27:17.843Z,101715.80
2018-07-23T18:29:46.474Z,101713.97
2018-07-23T18:32:15.326Z,101719.33
2018-07-23T18:34:44.039Z,101721.00
2018-07-23T18:37:12.943Z,101724.66
2018-07-23T18:39:41.777Z,101724.42
2018-07-23T18:42:10.648Z,101721.59
2018-07-23T18:44:39.467Z,101724.40
2018-07-23T18:47:08.348Z,101725.25
2018-07-23T18:49:51.002Z,101726.60
2018-07-23T18:52:20.524Z,101725.66
2018-07-23T18:54:51.620Z,101724.58
2018-07-23T18:57:20.480Z,101730.17
2018-07-23T18:59:49.413Z,101732.90
2018-07-23T19:02:19.156Z,101729.86
2018-07-23T19:04:48.014Z,101728.52
2018-07-23T19:07:16.883Z,101726.64
2018-07-23T19:09:45.672Z,101728.43
2018-07-23T19:12:14.546Z,101726.48
2018-07-23T19:14:43.323Z,101729.13
2018-07-23T19:17:13.379Z,101731.87
2018-07-23T19:19:42.294Z,101732.22
2018-07-23T19:22:12.052Z,101738.13
2018-07-23T19:24:41.013Z,101737.73
2018-07-23T19:27:09.844Z,101738.23
2018-07-23T19:29:38.835Z,101743.14
2018-07-23T19:32:07.661Z,101739.47
2018-07-23T19:34:36.518Z,101751.83
2018-07-23T19:37:05.443Z,101755.91
2018-07-23T19:39:34.278Z,101753.84
2018-07-23T19:42:03.196Z,101756.73
2018-07-23T19:44:32.034Z,101759.92
2018-07-23T19:47:00.650Z,101761.44
2018-07-23T19:49:29.412Z,101766.00
2018-07-23T19:51:59.007Z,101770.06
2018-07-23T19:54:28.091Z,101772.85
2018-07-23T19:56:56.931Z,101771.34
2018-07-23T19:59:26.142Z,101772.09
2018-07-23T20:01:54.952Z,101778.27
2018-07-23T20:04:23.704Z,101775.16
2018-07-23T20:06:52.679Z,101781.86
2018-07-23T20:09:21.441Z,101776.26
2018-07-23T20:11:50.263Z,101776.98
2018-07-23T20:14:18.861Z,101777.31
2018-07-23T20:16:47.725Z,101771.38
2018-07-23T20:19:16.628Z,101776.62
2018-07-23T20:21:45.529Z,101776.95
2018-07-23T20:24:14.343Z,101777.61
2018-07-23T20:26:43.220Z,101763.16
2018-07-23T20:29:11.997Z,101775.59
2018-07-23T20:31:40.899Z,101776.70
2018-07-23T20:34:09.722Z,101773.78
2018-07-23T20:36:38.568Z,101780.66
2018-07-23T20:39:08.017Z,101785.58
2018-07-23T20:41:36.887Z,101783.57
2018-07-23T20:44:05.895Z,101778.67
2018-07-23T20:46:34.727Z,101784.96
2018-07-23T20:49:03.591Z,101782.06
2018-07-23T20:51:32.436Z,101785.81
2018-07-23T20:54:01.240Z,101783.60
2018-07-23T20:56:29.911Z,101782.00
2018-07-23T20:58:58.593Z,101787.41
2018-07-23T21:01:27.183Z,101792.42
2018-07-23T21:03:56.041Z,101787.88
2018-07-23T21:06:24.808Z,101793.23
2018-07-23T21:08:53.686Z,101793.80
2018-07-23T21:11:22.504Z,101797.13
2018-07-23T21:13:51.370Z,101796.91
2018-07-23T21:16:20.171Z,101798.52
2018-07-23T21:18:48.993Z,101796.67
2018-07-23T21:21:17.887Z,101799.08
2018-07-23T21:23:46.722Z,101800.13
2018-07-23T21:26:15.580Z,101807.12
2018-07-23T21:28:44.399Z,101807.34
2018-07-23T21:31:13.358Z,101810.98
2018-07-23T21:33:42.253Z,101816.06
2018-07-23T21:36:11.035Z,101814.39
2018-07-23T21:38:39.903Z,101815.59
2018-07-23T21:41:08.687Z,101819.66
2018-07-23T21:43:37.442Z,101813.16
2018-07-23T21:46:06.488Z,101813.68
2018-07-23T21:48:35.362Z,101816.08
2018-07-23T21:51:03.979Z,101819.34
2018-07-23T21:53:32.794Z,101805.06
2018-07-23T21:56:01.699Z,101816.25
2018-07-23T21:58:30.602Z,101813.30
2018-07-23T22:00:59.467Z,101812.55
2018-07-23T22:03:28.130Z,101818.56
2018-07-23T22:05:56.955Z,101824.14
2018-07-23T22:08:25.736Z,101815.60
2018-07-23T22:10:54.641Z,101820.16
2018-07-23T22:13:23.474Z,101819.20
2018-07-23T22:15:52.328Z,101819.56
2018-07-23T22:18:21.159Z,101820.00
2018-07-23T22:20:49.991Z,101821.62
2018-07-23T22:23:18.850Z,101818.84
2018-07-23T22:25:47.729Z,101813.86
2018-07-23T22:28:16.511Z,101815.89
2018-07-23T22:30:45.475Z,101813.67
2018-07-23T22:33:14.352Z,101812.65
2018-07-23T22:35:43.260Z,101818.74
2018-07-23T22:38:12.057Z,101814.78
2018-07-23T22:40:40.886Z,101811.05
2018-07-23T22:43:09.655Z,101811.59
2018-07-23T22:45:44.480Z,101819.75
2018-07-23T22:48:13.178Z,101816.64
2018-07-23T22:50:42.018Z,101813.98
2018-07-23T22:53:10.840Z,101813.19
2018-07-23T22:55:39.665Z,101822.19
2018-07-23T22:58:08.507Z,101823.22
2018-07-23T23:00:37.719Z,101815.04
2018-07-23T23:03:06.619Z,101818.70
2018-07-23T23:05:35.422Z,101816.19
2018-07-23T23:08:04.300Z,101812.98
2018-07-23T23:10:33.131Z,101818.36
2018-07-23T23:13:02.043Z,101820.73
2018-07-23T23:15:30.864Z,101809.49
2018-07-23T23:17:59.736Z,101818.81
2018-07-23T23:20:28.501Z,101821.14
2018-07-23T23:22:57.320Z,101819.97
2018-07-23T23:25:26.211Z,101812.38
2018-07-23T23:27:55.125Z,101818.20
2018-07-23T23:30:24.024Z,101807.42
2018-07-23T23:32:52.912Z,101792.72
2018-07-23T23:35:21.697Z,101795.16
2018-07-23T23:37:50.584Z,101794.05
2018-07-23T23:40:19.384Z,101792.66
2018-07-23T23:42:48.157Z,101791.58
2018-07-23T23:45:17.066Z,101789.62
2018-07-23T23:47:45.847Z,101794.76
2018-07-23T23:50:14.716Z,101792.05
2018-07-23T23:52:43.584Z,101791.71
2018-07-23T23:55:12.479Z,101791.86
2018-07-23T23:57:41.225Z,101789.05
